sensor_id;sensor_type;location;lat;lon;timestamp;pressure;altitude;pressure_sealevel;temperature;humidity
16255;BME280;8235;52.198;9.904;2023-08-17T00:00:29;101170.25;;;20.11;81.67
16255;BME280;8235;52.198;9.904;2023-08-17T00:02:55;101183.78;;;20.11;82.22
16255;BME280;8235;52.198;9.904;2023-08-17T00:05:22;101182.06;;;20.10;83.46
16255;BME280;8235;52.198;9.904;2023-08-17T00:07:48;101190.19;;;20.10;84.08
16255;BME280;8235;52.198;9.904;2023-08-17T00:10:14;101193.75;;;20.10;85.17
16255;BME280;8235;52.198;9.904;2023-08-17T00:12:41;101190.19;;;20.10;85.43
16255;BME280;8235;52.198;9.904;2023-08-17T00:15:08;101191.31;;;20.07;85.72
16255;BME280;8235;52.198;9.904;2023-08-17T00:17:36;101182.38;;;20.07;86.64
16255;BME280;8235;52.198;9.904;2023-08-17T00:20:03;101177.13;;;20.05;86.22
16255;BME280;8235;52.198;9.904;2023-08-17T00:22:30;101166.75;;;20.01;85.92
16255;BME280;8235;52.198;9.904;2023-08-17T00:24:56;101164.47;;;19.96;86.08
16255;BME280;8235;52.198;9.904;2023-08-17T00:27:23;101165.75;;;19.92;86.27
16255;BME280;8235;52.198;9.904;2023-08-17T00:29:50;101167.75;;;19.90;87.47
16255;BME280;8235;52.198;9.904;2023-08-17T00:32:16;101164.34;;;19.88;87.66
16255;BME280;8235;52.198;9.904;2023-08-17T00:34:44;101164.50;;;19.87;88.54
16255;BME280;8235;52.198;9.904;2023-08-17T00:37:10;101161.78;;;19.87;89.29
16255;BME280;8235;52.198;9.904;2023-08-17T00:39:37;101158.25;;;19.86;89.78
16255;BME280;8235;52.198;9.904;2023-08-17T00:42:03;101161.78;;;19.87;90.38
16255;BME280;8235;52.198;9.904;2023-08-17T00:44:30;101161.09;;;19.85;90.75
16255;BME280;8235;52.198;9.904;2023-08-17T00:46:56;101164.91;;;19.82;91.39
16255;BME280;8235;52.198;9.904;2023-08-17T00:49:23;101166.91;;;19.80;91.99
16255;BME280;8235;52.198;9.904;2023-08-17T00:51:51;101169.63;;;19.80;92.65
16255;BME280;8235;52.198;9.904;2023-08-17T00:54:23;101163.50;;;19.78;93.42
16255;BME280;8235;52.198;9.904;2023-08-17T00:56:50;101162.66;;;19.77;92.42
16255;BME280;8235;52.198;9.904;2023-08-17T00:59:17;101169.91;;;19.67;90.88
16255;BME280;8235;52.198;9.904;2023-08-17T01:01:43;101167.78;;;19.61;91.67
16255;BME280;8235;52.198;9.904;2023-08-17T01:04:10;101168.06;;;19.58;92.89
16255;BME280;8235;52.198;9.904;2023-08-17T01:06:36;101185.41;;;19.56;93.84
16255;BME280;8235;52.198;9.904;2023-08-17T01:09:05;101187.38;;;19.54;94.87
16255;BME280;8235;52.198;9.904;2023-08-17T01:11:37;101213.72;;;19.52;95.45
16255;BME280;8235;52.198;9.904;2023-08-17T01:14:11;101222.81;;;19.51;96.59
16255;BME280;8235;52.198;9.904;2023-08-17T01:16:47;101205.28;;;19.45;96.99
16255;BME280;8235;52.198;9.904;2023-08-17T01:19:21;101188.91;;;19.37;96.16
16255;BME280;8235;52.198;9.904;2023-08-17T01:21:51;101181.66;;;19.28;96.54
16255;BME280;8235;52.198;9.904;2023-08-17T01:24:22;101175.25;;;19.19;97.01
16255;BME280;8235;52.198;9.904;2023-08-17T01:26:48;101156.94;;;19.13;97.66
16255;BME280;8235;52.198;9.904;2023-08-17T01:29:15;101138.72;;;19.05;99.67
16255;BME280;8235;52.198;9.904;2023-08-17T01:31:45;101131.16;;;18.99;100.00
16255;BME280;8235;52.198;9.904;2023-08-17T01:34:18;101131.88;;;18.92;100.00
16255;BME280;8235;52.198;9.904;2023-08-17T01:36:50;101153.16;;;18.85;100.00
16255;BME280;8235;52.198;9.904;2023-08-17T01:39:19;101160.97;;;18.79;100.00
16255;BME280;8235;52.198;9.904;2023-08-17T01:41:51;101154.28;;;18.73;100.00
16255;BME280;8235;52.198;9.904;2023-08-17T01:44:18;101144.75;;;18.69;100.00
16255;BME280;8235;52.198;9.904;2023-08-17T01:46:45;101141.44;;;18.65;100.00
16255;BME280;8235;52.198;9.904;2023-08-17T01:49:11;101138.34;;;18.60;100.00
16255;BME280;8235;52.198;9.904;2023-08-17T01:51:38;101141.41;;;18.56;100.00
16255;BME280;8235;52.198;9.904;2023-08-17T01:54:05;101141.53;;;18.54;100.00
16255;BME280;8235;52.198;9.904;2023-08-17T01:56:31;101140.81;;;18.52;100.00
16255;BME280;8235;52.198;9.904;2023-08-17T01:58:59;101139.38;;;18.48;100.00
16255;BME280;8235;52.198;9.904;2023-08-17T02:01:26;101145.03;;;18.45;100.00
16255;BME280;8235;52.198;9.904;2023-08-17T02:03:53;101141.78;;;18.42;100.00
16255;BME280;8235;52.198;9.904;2023-08-17T02:06:19;101141.06;;;18.39;100.00
16255;BME280;8235;52.198;9.904;2023-08-17T02:08:46;101131.38;;;18.37;100.00
16255;BME280;8235;52.198;9.904;2023-08-17T02:11:12;101138.50;;;18.38;100.00
16255;BME280;8235;52.198;9.904;2023-08-17T02:13:39;101133.09;;;18.38;100.00
16255;BME280;8235;52.198;9.904;2023-08-17T02:16:06;101119.75;;;18.36;100.00
16255;BME280;8235;52.198;9.904;2023-08-17T02:18:33;101121.59;;;18.36;100.00
16255;BME280;8235;52.198;9.904;2023-08-17T02:21:00;101116.34;;;18.34;100.00
16255;BME280;8235;52.198;9.904;2023-08-17T02:23:27;101113.75;;;18.33;100.00
16255;BME280;8235;52.198;9.904;2023-08-17T02:25:53;101110.09;;;18.34;100.00
16255;BME280;8235;52.198;9.904;2023-08-17T02:28:19;101106.66;;;18.32;100.00
16255;BME280;8235;52.198;9.904;2023-08-17T02:30:46;101115.59;;;18.32;100.00
16255;BME280;8235;52.198;9.904;2023-08-17T02:33:14;101103.13;;;18.31;100.00
16255;BME280;8235;52.198;9.904;2023-08-17T02:35:40;101096.00;;;18.30;100.00
16255;BME280;8235;52.198;9.904;2023-08-17T02:38:07;101092.47;;;18.30;100.00
16255;BME280;8235;52.198;9.904;2023-08-17T02:40:33;101098.84;;;18.29;100.00
16255;BME280;8235;52.198;9.904;2023-08-17T02:43:00;101093.75;;;18.26;100.00
16255;BME280;8235;52.198;9.904;2023-08-17T02:45:26;101088.50;;;18.24;100.00
16255;BME280;8235;52.198;9.904;2023-08-17T02:47:53;101087.63;;;18.24;100.00
16255;BME280;8235;52.198;9.904;2023-08-17T02:50:20;101083.38;;;18.21;100.00
16255;BME280;8235;52.198;9.904;2023-08-17T02:52:47;101080.66;;;18.21;100.00
16255;BME280;8235;52.198;9.904;2023-08-17T02:55:13;101069.03;;;18.21;100.00
16255;BME280;8235;52.198;9.904;2023-08-17T02:57:40;101070.88;;;18.20;100.00
16255;BME280;8235;52.198;9.904;2023-08-17T03:00:07;101062.66;;;18.22;100.00
16255;BME280;8235;52.198;9.904;2023-08-17T03:02:34;101059.22;;;18.20;100.00
16255;BME280;8235;52.198;9.904;2023-08-17T03:05:00;101054.81;;;18.19;100.00
16255;BME280;8235;52.198;9.904;2023-08-17T03:07:28;101061.94;;;18.20;100.00
16255;BME280;8235;52.198;9.904;2023-08-17T03:09:55;101058.38;;;18.19;100.00
16255;BME280;8235;52.198;9.904;2023-08-17T03:12:21;101062.19;;;18.17;100.00
16255;BME280;8235;52.198;9.904;2023-08-17T03:14:47;101064.03;;;18.16;100.00
16255;BME280;8235;52.198;9.904;2023-08-17T03:17:14;101073.97;;;18.16;100.00
16255;BME280;8235;52.198;9.904;2023-08-17T03:19:40;101072.13;;;18.16;100.00
16255;BME280;8235;52.198;9.904;2023-08-17T03:22:07;101062.31;;;18.15;100.00
16255;BME280;8235;52.198;9.904;2023-08-17T03:24:34;101071.28;;;18.16;100.00
16255;BME280;8235;52.198;9.904;2023-08-17T03:27:01;101066.59;;;18.18;100.00
16255;BME280;8235;52.198;9.904;2023-08-17T03:29:27;101063.06;;;18.17;100.00
16255;BME280;8235;52.198;9.904;2023-08-17T03:31:54;101055.09;;;18.16;100.00
16255;BME280;8235;52.198;9.904;2023-08-17T03:34:21;101047.84;;;18.16;100.00
16255;BME280;8235;52.198;9.904;2023-08-17T03:36:48;101054.09;;;18.17;100.00
16255;BME280;8235;52.198;9.904;2023-08-17T03:39:14;101055.22;;;18.14;100.00
16255;BME280;8235;52.198;9.904;2023-08-17T03:41:42;101053.38;;;18.15;100.00
16255;BME280;8235;52.198;9.904;2023-08-17T03:44:09;101060.50;;;18.16;100.00
16255;BME280;8235;52.198;9.904;2023-08-17T03:46:35;101066.88;;;18.15;100.00
16255;BME280;8235;52.198;9.904;2023-08-17T03:49:02;101065.88;;;18.16;100.00
16255;BME280;8235;52.198;9.904;2023-08-17T03:51:29;101062.31;;;18.15;100.00
16255;BME280;8235;52.198;9.904;2023-08-17T03:53:55;101061.34;;;18.16;100.00
16255;BME280;8235;52.198;9.904;2023-08-17T03:56:21;101065.75;;;18.17;100.00
16255;BME280;8235;52.198;9.904;2023-08-17T03:58:49;101070.16;;;18.18;100.00
16255;BME280;8235;52.198;9.904;2023-08-17T04:01:16;101079.34;;;18.16;100.00
16255;BME280;8235;52.198;9.904;2023-08-17T04:03:42;101082.06;;;18.16;100.00
16255;BME280;8235;52.198;9.904;2023-08-17T04:06:09;101075.66;;;18.17;100.00
16255;BME280;8235;52.198;9.904;2023-08-17T04:08:36;101086.47;;;18.17;100.00
16255;BME280;8235;52.198;9.904;2023-08-17T04:11:03;101081.91;;;18.17;100.00
16255;BME280;8235;52.198;9.904;2023-08-17T04:13:30;101090.84;;;18.18;100.00
16255;BME280;8235;52.198;9.904;2023-08-17T04:15:58;101079.09;;;18.19;100.00
16255;BME280;8235;52.198;9.904;2023-08-17T04:18:24;101093.56;;;18.18;100.00
16255;BME280;8235;52.198;9.904;2023-08-17T04:20:50;101091.59;;;18.20;100.00
16255;BME280;8235;52.198;9.904;2023-08-17T04:23:17;101096.97;;;18.20;100.00
16255;BME280;8235;52.198;9.904;2023-08-17T04:25:43;101093.44;;;18.19;100.00
16255;BME280;8235;52.198;9.904;2023-08-17T04:28:10;101102.38;;;18.20;100.00
16255;BME280;8235;52.198;9.904;2023-08-17T04:30:37;101102.38;;;18.20;100.00
16255;BME280;8235;52.198;9.904;2023-08-17T04:33:05;101101.38;;;18.21;100.00
16255;BME280;8235;52.198;9.904;2023-08-17T04:35:33;101100.25;;;18.23;100.00
16255;BME280;8235;52.198;9.904;2023-08-17T04:37:59;101100.25;;;18.23;100.00
16255;BME280;8235;52.198;9.904;2023-08-17T04:40:26;101101.97;;;18.24;100.00
16255;BME280;8235;52.198;9.904;2023-08-17T04:42:53;101097.28;;;18.26;100.00
16255;BME280;8235;52.198;9.904;2023-08-17T04:45:19;101097.00;;;18.29;100.00
16255;BME280;8235;52.198;9.904;2023-08-17T04:47:46;101095.03;;;18.31;100.00
16255;BME280;8235;52.198;9.904;2023-08-17T04:50:14;101091.47;;;18.31;100.00
16255;BME280;8235;52.198;9.904;2023-08-17T04:52:41;101098.44;;;18.33;100.00
16255;BME280;8235;52.198;9.904;2023-08-17T04:55:08;101095.88;;;18.32;100.00
16255;BME280;8235;52.198;9.904;2023-08-17T04:57:34;101098.44;;;18.33;100.00
16255;BME280;8235;52.198;9.904;2023-08-17T05:00:01;101084.81;;;18.35;100.00
16255;BME280;8235;52.198;9.904;2023-08-17T05:02:28;101090.22;;;18.35;100.00
16255;BME280;8235;52.198;9.904;2023-08-17T05:04:55;101085.53;;;18.37;100.00
16255;BME280;8235;52.198;9.904;2023-08-17T05:07:24;101094.34;;;18.39;100.00
16255;BME280;8235;52.198;9.904;2023-08-17T05:09:50;101095.06;;;18.41;100.00
16255;BME280;8235;52.198;9.904;2023-08-17T05:12:17;101100.47;;;18.41;100.00
16255;BME280;8235;52.198;9.904;2023-08-17T05:14:43;101101.47;;;18.40;100.00
16255;BME280;8235;52.198;9.904;2023-08-17T05:17:10;101102.31;;;18.41;100.00
16255;BME280;8235;52.198;9.904;2023-08-17T05:19:36;101102.91;;;18.44;100.00
16255;BME280;8235;52.198;9.904;2023-08-17T05:22:05;101101.88;;;18.45;100.00
16255;BME280;8235;52.198;9.904;2023-08-17T05:24:33;101099.19;;;18.45;100.00
16255;BME280;8235;52.198;9.904;2023-08-17T05:26:59;101100.88;;;18.46;100.00
16255;BME280;8235;52.198;9.904;2023-08-17T05:29:26;101098.06;;;18.48;100.00
16255;BME280;8235;52.198;9.904;2023-08-17T05:31:52;101099.63;;;18.50;100.00
16255;BME280;8235;52.198;9.904;2023-08-17T05:34:19;101098.50;;;18.53;100.00
16255;BME280;8235;52.198;9.904;2023-08-17T05:36:45;101096.66;;;18.53;100.00
16255;BME280;8235;52.198;9.904;2023-08-17T05:39:12;101092.97;;;18.54;100.00
16255;BME280;8235;52.198;9.904;2023-08-17T05:41:42;101094.69;;;18.55;100.00
16255;BME280;8235;52.198;9.904;2023-08-17T05:44:08;101090.28;;;18.54;100.00
16255;BME280;8235;52.198;9.904;2023-08-17T05:46:35;101086.59;;;18.55;100.00
16255;BME280;8235;52.198;9.904;2023-08-17T05:49:02;101085.47;;;18.58;100.00
16255;BME280;8235;52.198;9.904;2023-08-17T05:51:29;101088.94;;;18.60;100.00
16255;BME280;8235;52.198;9.904;2023-08-17T05:53:55;101090.63;;;18.61;100.00
16255;BME280;8235;52.198;9.904;2023-08-17T05:56:22;101091.47;;;18.61;100.00
16255;BME280;8235;52.198;9.904;2023-08-17T05:58:50;101092.47;;;18.60;100.00
16255;BME280;8235;52.198;9.904;2023-08-17T06:01:16;101096.88;;;18.61;100.00
16255;BME280;8235;52.198;9.904;2023-08-17T06:03:43;101096.75;;;18.63;100.00
16255;BME280;8235;52.198;9.904;2023-08-17T06:06:10;101093.03;;;18.64;100.00
16255;BME280;8235;52.198;9.904;2023-08-17T06:08:37;101106.38;;;18.65;100.00
16255;BME280;8235;52.198;9.904;2023-08-17T06:11:03;101099.28;;;18.64;100.00
16255;BME280;8235;52.198;9.904;2023-08-17T06:13:30;101102.69;;;18.66;100.00
16255;BME280;8235;52.198;9.904;2023-08-17T06:15:58;101106.25;;;18.67;100.00
16255;BME280;8235;52.198;9.904;2023-08-17T06:18:24;101102.56;;;18.68;100.00
16255;BME280;8235;52.198;9.904;2023-08-17T06:20:51;101108.81;;;18.68;100.00
16255;BME280;8235;52.198;9.904;2023-08-17T06:23:19;101114.34;;;18.67;100.00
16255;BME280;8235;52.198;9.904;2023-08-17T06:25:45;101109.06;;;18.65;100.00
16255;BME280;8235;52.198;9.904;2023-08-17T06:28:12;101117.88;;;18.67;100.00
16255;BME280;8235;52.198;9.904;2023-08-17T06:30:38;101113.22;;;18.69;100.00
16255;BME280;8235;52.198;9.904;2023-08-17T06:33:06;101112.34;;;18.69;100.00
16255;BME280;8235;52.198;9.904;2023-08-17T06:35:32;101108.53;;;18.71;100.00
16255;BME280;8235;52.198;9.904;2023-08-17T06:37:59;101106.69;;;18.72;100.00
16255;BME280;8235;52.198;9.904;2023-08-17T06:40:25;101110.25;;;18.72;100.00
16255;BME280;8235;52.198;9.904;2023-08-17T06:42:52;101109.25;;;18.73;100.00
16255;BME280;8235;52.198;9.904;2023-08-17T06:45:20;101104.56;;;18.76;100.00
16255;BME280;8235;52.198;9.904;2023-08-17T06:47:47;101100.03;;;18.76;100.00
16255;BME280;8235;52.198;9.904;2023-08-17T06:50:16;101109.84;;;18.77;100.00
16255;BME280;8235;52.198;9.904;2023-08-17T06:52:42;101104.31;;;18.79;100.00
16255;BME280;8235;52.198;9.904;2023-08-17T06:55:09;101104.31;;;18.79;100.00
16255;BME280;8235;52.198;9.904;2023-08-17T06:57:36;101116.50;;;18.83;100.00
16255;BME280;8235;52.198;9.904;2023-08-17T07:00:03;101110.97;;;18.84;100.00
16255;BME280;8235;52.198;9.904;2023-08-17T07:02:31;101115.50;;;18.84;100.00
16255;BME280;8235;52.198;9.904;2023-08-17T07:04:57;101115.50;;;18.84;100.00
16255;BME280;8235;52.198;9.904;2023-08-17T07:07:25;101121.63;;;18.86;100.00
16255;BME280;8235;52.198;9.904;2023-08-17T07:09:52;101117.94;;;18.87;100.00
16255;BME280;8235;52.198;9.904;2023-08-17T07:12:18;101120.50;;;18.88;100.00
16255;BME280;8235;52.198;9.904;2023-08-17T07:14:45;101122.22;;;18.89;100.00
16255;BME280;8235;52.198;9.904;2023-08-17T07:17:11;101126.47;;;18.92;100.00
16255;BME280;8235;52.198;9.904;2023-08-17T07:19:38;101113.69;;;18.94;100.00
16255;BME280;8235;52.198;9.904;2023-08-17T07:22:04;101121.38;;;18.98;100.00
16255;BME280;8235;52.198;9.904;2023-08-17T07:24:32;101122.06;;;19.00;100.00
16255;BME280;8235;52.198;9.904;2023-08-17T07:26:58;101121.94;;;19.02;100.00
16255;BME280;8235;52.198;9.904;2023-08-17T07:29:25;101119.81;;;19.05;100.00
16255;BME280;8235;52.198;9.904;2023-08-17T07:31:51;101126.06;;;19.06;100.00
16255;BME280;8235;52.198;9.904;2023-08-17T07:34:19;101121.38;;;19.08;100.00
16255;BME280;8235;52.198;9.904;2023-08-17T07:36:46;101124.94;;;19.08;100.00
16255;BME280;8235;52.198;9.904;2023-08-17T07:39:12;101124.94;;;19.08;100.00
16255;BME280;8235;52.198;9.904;2023-08-17T07:41:40;101129.34;;;19.10;100.00
16255;BME280;8235;52.198;9.904;2023-08-17T07:44:07;101127.50;;;19.10;100.00
16255;BME280;8235;52.198;9.904;2023-08-17T07:46:33;101127.38;;;19.12;100.00
16255;BME280;8235;52.198;9.904;2023-08-17T07:48:59;101129.06;;;19.13;100.00
16255;BME280;8235;52.198;9.904;2023-08-17T07:51:26;101134.34;;;19.14;100.00
16255;BME280;8235;52.198;9.904;2023-08-17T07:53:55;101132.63;;;19.13;100.00
16255;BME280;8235;52.198;9.904;2023-08-17T07:56:21;101135.31;;;19.13;100.00
16255;BME280;8235;52.198;9.904;2023-08-17T07:58:49;101140.59;;;19.15;100.00
16255;BME280;8235;52.198;9.904;2023-08-17T08:01:15;101143.16;;;19.16;100.00
16255;BME280;8235;52.198;9.904;2023-08-17T08:03:42;101141.59;;;19.14;100.00
16255;BME280;8235;52.198;9.904;2023-08-17T08:06:08;101146.84;;;19.15;100.00
16255;BME280;8235;52.198;9.904;2023-08-17T08:08:35;101146.72;;;19.17;100.00
16255;BME280;8235;52.198;9.904;2023-08-17T08:11:01;101155.34;;;19.20;100.00
16255;BME280;8235;52.198;9.904;2023-08-17T08:13:29;101149.69;;;19.23;100.00
16255;BME280;8235;52.198;9.904;2023-08-17T08:15:58;101143.41;;;19.23;100.00
16255;BME280;8235;52.198;9.904;2023-08-17T08:18:25;101145.28;;;19.22;100.00
16255;BME280;8235;52.198;9.904;2023-08-17T08:20:51;101144.28;;;19.23;100.00
16255;BME280;8235;52.198;9.904;2023-08-17T08:23:18;101145.97;;;19.24;100.00
16255;BME280;8235;52.198;9.904;2023-08-17T08:25:44;101139.44;;;19.27;100.00
16255;BME280;8235;52.198;9.904;2023-08-17T08:28:11;101142.16;;;19.27;100.00
16255;BME280;8235;52.198;9.904;2023-08-17T08:30:37;101140.31;;;19.27;100.00
16255;BME280;8235;52.198;9.904;2023-08-17T08:33:05;101141.03;;;19.29;100.00
16255;BME280;8235;52.198;9.904;2023-08-17T08:35:31;101143.44;;;19.32;100.00
16255;BME280;8235;52.198;9.904;2023-08-17T08:37:58;101137.91;;;19.34;100.00
16255;BME280;8235;52.198;9.904;2023-08-17T08:40:27;101135.88;;;19.36;100.00
16255;BME280;8235;52.198;9.904;2023-08-17T08:42:54;101136.75;;;19.36;100.00
16255;BME280;8235;52.198;9.904;2023-08-17T08:45:20;101140.16;;;19.38;100.00
16255;BME280;8235;52.198;9.904;2023-08-17T08:47:48;101138.88;;;19.42;100.00
16255;BME280;8235;52.198;9.904;2023-08-17T08:50:18;101137.03;;;19.43;100.00
16255;BME280;8235;52.198;9.904;2023-08-17T08:52:50;101135.91;;;19.46;100.00
16255;BME280;8235;52.198;9.904;2023-08-17T08:55:23;101132.22;;;19.47;100.00
16255;BME280;8235;52.198;9.904;2023-08-17T08:57:49;101137.63;;;19.47;100.00
16255;BME280;8235;52.198;9.904;2023-08-17T09:00:19;101140.19;;;19.48;100.00
16255;BME280;8235;52.198;9.904;2023-08-17T09:02:45;101133.66;;;19.51;100.00
16255;BME280;8235;52.198;9.904;2023-08-17T09:05:12;101144.16;;;19.54;100.00
16255;BME280;8235;52.198;9.904;2023-08-17T09:07:42;101142.47;;;19.53;100.00
16255;BME280;8235;52.198;9.904;2023-08-17T09:10:09;101140.91;;;19.50;100.00
16255;BME280;8235;52.198;9.904;2023-08-17T09:12:36;101137.47;;;19.48;100.00
16255;BME280;8235;52.198;9.904;2023-08-17T09:15:03;101142.03;;;19.48;100.00
16255;BME280;8235;52.198;9.904;2023-08-17T09:17:32;101134.78;;;19.48;100.00
16255;BME280;8235;52.198;9.904;2023-08-17T09:19:59;101137.38;;;19.50;100.00
16255;BME280;8235;52.198;9.904;2023-08-17T09:22:37;101147.28;;;19.49;100.00
16255;BME280;8235;52.198;9.904;2023-08-17T09:25:06;101146.44;;;19.49;100.00
16255;BME280;8235;52.198;9.904;2023-08-17T09:27:33;101144.88;;;19.46;100.00
16255;BME280;8235;52.198;9.904;2023-08-17T09:30:03;101135.91;;;19.46;100.00
16255;BME280;8235;52.198;9.904;2023-08-17T09:32:31;101128.78;;;19.45;100.00
16255;BME280;8235;52.198;9.904;2023-08-17T09:35:00;101130.78;;;19.42;100.00
16255;BME280;8235;52.198;9.904;2023-08-17T09:37:27;101126.50;;;19.40;100.00
16255;BME280;8235;52.198;9.904;2023-08-17T09:39:53;101132.06;;;19.38;100.00
16255;BME280;8235;52.198;9.904;2023-08-17T09:42:22;101122.38;;;19.36;100.00
16255;BME280;8235;52.198;9.904;2023-08-17T09:44:50;101130.47;;;19.36;100.00
16255;BME280;8235;52.198;9.904;2023-08-17T09:47:17;101127.09;;;19.34;100.00
16255;BME280;8235;52.198;9.904;2023-08-17T09:49:48;101121.69;;;19.34;100.00
16255;BME280;8235;52.198;9.904;2023-08-17T09:52:14;101128.94;;;19.33;100.00
16255;BME280;8235;52.198;9.904;2023-08-17T09:54:41;101125.41;;;19.33;100.00
16255;BME280;8235;52.198;9.904;2023-08-17T09:57:08;101126.25;;;19.33;100.00
16255;BME280;8235;52.198;9.904;2023-08-17T09:59:37;101123.25;;;19.36;100.00
16255;BME280;8235;52.198;9.904;2023-08-17T10:02:03;101128.63;;;19.36;100.00
16255;BME280;8235;52.198;9.904;2023-08-17T10:04:37;101135.75;;;19.37;100.00
16255;BME280;8235;52.198;9.904;2023-08-17T10:07:05;101136.75;;;19.36;100.00
16255;BME280;8235;52.198;9.904;2023-08-17T10:09:36;101133.03;;;19.37;100.00
16255;BME280;8235;52.198;9.904;2023-08-17T10:12:10;101140.44;;;19.35;100.00
16255;BME280;8235;52.198;9.904;2023-08-17T10:14:48;101141.47;;;19.34;100.00
16255;BME280;8235;52.198;9.904;2023-08-17T10:17:20;101128.63;;;19.36;100.00
16255;BME280;8235;52.198;9.904;2023-08-17T10:19:52;101129.63;;;19.35;100.00
16255;BME280;8235;52.198;9.904;2023-08-17T10:22:25;101130.47;;;19.36;100.00
16255;BME280;8235;52.198;9.904;2023-08-17T10:24:55;101134.03;;;19.36;100.00
16255;BME280;8235;52.198;9.904;2023-08-17T10:27:24;101127.66;;;19.37;100.00
16255;BME280;8235;52.198;9.904;2023-08-17T10:29:53;101130.91;;;19.41;100.00
16255;BME280;8235;52.198;9.904;2023-08-17T10:32:21;101131.63;;;19.43;100.00
16255;BME280;8235;52.198;9.904;2023-08-17T10:34:48;101124.25;;;19.45;100.00
16255;BME280;8235;52.198;9.904;2023-08-17T10:37:17;101124.81;;;19.49;100.00
16255;BME280;8235;52.198;9.904;2023-08-17T10:39:45;101124.56;;;19.52;100.00
16255;BME280;8235;52.198;9.904;2023-08-17T10:42:12;101123.97;;;19.58;100.00
16255;BME280;8235;52.198;9.904;2023-08-17T10:44:41;101122.00;;;19.60;100.00
16255;BME280;8235;52.198;9.904;2023-08-17T10:47:22;101125.53;;;19.60;100.00
16255;BME280;8235;52.198;9.904;2023-08-17T10:49:50;101135.34;;;19.61;100.00
16255;BME280;8235;52.198;9.904;2023-08-17T10:52:28;101133.66;;;19.60;100.00
16255;BME280;8235;52.198;9.904;2023-08-17T10:54:55;101134.78;;;19.58;100.00
16255;BME280;8235;52.198;9.904;2023-08-17T10:57:28;101141.31;;;19.55;100.00
16255;BME280;8235;52.198;9.904;2023-08-17T11:00:18;101144.88;;;19.56;100.00
16255;BME280;8235;52.198;9.904;2023-08-17T11:02:54;101147.72;;;19.54;100.00
16255;BME280;8235;52.198;9.904;2023-08-17T11:05:34;101142.63;;;19.51;100.00
16255;BME280;8235;52.198;9.904;2023-08-17T11:08:01;101148.28;;;19.48;100.00
16255;BME280;8235;52.198;9.904;2023-08-17T11:10:28;101147.00;;;19.42;100.00
16255;BME280;8235;52.198;9.904;2023-08-17T11:12:56;101152.66;;;19.39;100.00
16255;BME280;8235;52.198;9.904;2023-08-17T11:15:25;101166.44;;;19.36;100.00
16255;BME280;8235;52.198;9.904;2023-08-17T11:17:52;101165.31;;;19.29;100.00
16255;BME280;8235;52.198;9.904;2023-08-17T11:20:19;101172.28;;;19.22;100.00
16255;BME280;8235;52.198;9.904;2023-08-17T11:22:49;101168.31;;;19.17;100.00
16255;BME280;8235;52.198;9.904;2023-08-17T11:25:16;101178.25;;;19.16;100.00
16255;BME280;8235;52.198;9.904;2023-08-17T11:27:41;101175.97;;;19.12;100.00
16255;BME280;8235;52.198;9.904;2023-08-17T11:30:09;101180.78;;;19.08;100.00
16255;BME280;8235;52.198;9.904;2023-08-17T11:32:36;101183.03;;;19.03;100.00
16255;BME280;8235;52.198;9.904;2023-08-17T11:35:02;101174.22;;;19.01;100.00
16255;BME280;8235;52.198;9.904;2023-08-17T11:37:30;101172.81;;;18.97;100.00
16255;BME280;8235;52.198;9.904;2023-08-17T11:39:58;101171.50;;;18.91;100.00
16255;BME280;8235;52.198;9.904;2023-08-17T11:42:25;101170.06;;;18.87;100.00
16255;BME280;8235;52.198;9.904;2023-08-17T11:44:51;101170.47;;;18.83;100.00
16255;BME280;8235;52.198;9.904;2023-08-17T11:47:18;101170.78;;;18.80;100.00
16255;BME280;8235;52.198;9.904;2023-08-17T11:49:47;101179.28;;;18.75;100.00
16255;BME280;8235;52.198;9.904;2023-08-17T11:52:14;101182.97;;;18.74;100.00
16255;BME280;8235;52.198;9.904;2023-08-17T11:54:42;101189.47;;;18.71;100.00
16255;BME280;8235;52.198;9.904;2023-08-17T11:57:09;101189.75;;;18.68;100.00
16255;BME280;8235;52.198;9.904;2023-08-17T11:59:35;101182.91;;;18.64;100.00
16255;BME280;8235;52.198;9.904;2023-08-17T12:02:02;101187.63;;;18.62;100.00
16255;BME280;8235;52.198;9.904;2023-08-17T12:04:29;101173.41;;;18.60;100.00
16255;BME280;8235;52.198;9.904;2023-08-17T12:06:55;101169.38;;;18.55;100.00
16255;BME280;8235;52.198;9.904;2023-08-17T12:09:22;101185.69;;;18.53;100.00
16255;BME280;8235;52.198;9.904;2023-08-17T12:11:58;101188.50;;;18.52;100.00
16255;BME280;8235;52.198;9.904;2023-08-17T12:14:26;101185.09;;;18.50;100.00
16255;BME280;8235;52.198;9.904;2023-08-17T12:16:52;101194.03;;;18.50;100.00
16255;BME280;8235;52.198;9.904;2023-08-17T12:19:19;101188.50;;;18.52;100.00
16255;BME280;8235;52.198;9.904;2023-08-17T12:21:48;101191.34;;;18.50;100.00
16255;BME280;8235;52.198;9.904;2023-08-17T12:24:14;101188.78;;;18.49;100.00
16255;BME280;8235;52.198;9.904;2023-08-17T12:26:41;101193.44;;;18.47;100.00
16255;BME280;8235;52.198;9.904;2023-08-17T12:29:10;101188.91;;;18.47;100.00
16255;BME280;8235;52.198;9.904;2023-08-17T12:31:36;101180.81;;;18.47;100.00
16255;BME280;8235;52.198;9.904;2023-08-17T12:34:03;101182.53;;;18.48;100.00
16255;BME280;8235;52.198;9.904;2023-08-17T12:36:31;101184.25;;;18.49;100.00
16255;BME280;8235;52.198;9.904;2023-08-17T12:38:57;101183.25;;;18.50;100.00
16255;BME280;8235;52.198;9.904;2023-08-17T12:41:24;101175.88;;;18.52;100.00
16255;BME280;8235;52.198;9.904;2023-08-17T12:43:50;101177.59;;;18.53;100.00
16255;BME280;8235;52.198;9.904;2023-08-17T12:46:20;101179.16;;;18.56;100.00
16255;BME280;8235;52.198;9.904;2023-08-17T12:48:46;101178.31;;;18.55;100.00
16255;BME280;8235;52.198;9.904;2023-08-17T12:51:13;101182.72;;;18.56;100.00